createdAt,value
2022-08-15T00:00:25.673Z,10.85
2022-08-15T00:03:01.095Z,11.90
2022-08-15T00:05:30.593Z,11.87
2022-08-15T00:08:00.130Z,12.10
2022-08-15T00:11:01.766Z,12.27
2022-08-15T00:13:25.755Z,11.77
2022-08-15T00:15:57.828Z,11.90
2022-08-15T00:18:27.865Z,11.23
2022-08-15T00:20:55.178Z,11.38
2022-08-15T00:23:27.816Z,10.98
2022-08-15T00:25:59.534Z,11.43
2022-08-15T00:28:46.274Z,11.65
2022-08-15T00:31:40.880Z,11.50
2022-08-15T00:34:39.648Z,11.63
2022-08-15T00:36:58.618Z,11.95
2022-08-15T00:39:26.643Z,12.30
2022-08-15T00:42:01.525Z,12.50
2022-08-15T00:45:00.775Z,12.57
2022-08-15T00:47:31.562Z,12.95
2022-08-15T00:50:06.155Z,12.43
2022-08-15T00:52:40.072Z,12.80
2022-08-15T00:55:12.019Z,12.90
2022-08-15T00:57:58.912Z,12.27
2022-08-15T01:00:34.329Z,11.07
2022-08-15T01:03:14.465Z,10.70
2022-08-15T01:05:47.778Z,11.05
2022-08-15T01:08:19.224Z,11.50
2022-08-15T01:10:59.612Z,10.90
2022-08-15T01:14:04.457Z,11.60
2022-08-15T01:16:32.872Z,11.45
2022-08-15T01:19:26.223Z,11.93
2022-08-15T01:22:02.591Z,11.25
2022-08-15T01:25:15.945Z,12.40
2022-08-15T01:28:01.214Z,11.40
2022-08-15T01:31:00.795Z,10.95
2022-08-15T01:33:18.784Z,11.98
2022-08-15T01:35:53.485Z,11.95
2022-08-15T01:38:37.194Z,11.53
2022-08-15T01:41:36.131Z,12.63
2022-08-15T01:44:49.710Z,12.05
2022-08-15T01:47:57.702Z,12.15
2022-08-15T01:50:37.754Z,13.10
2022-08-15T01:53:17.034Z,12.97
2022-08-15T01:55:54.733Z,11.50
2022-08-15T01:58:23.210Z,11.10
2022-08-15T02:00:58.989Z,12.93
2022-08-15T02:03:49.448Z,11.98
2022-08-15T02:06:26.033Z,12.33
2022-08-15T02:09:37.478Z,12.35
2022-08-15T02:12:00.950Z,12.82
2022-08-15T02:14:38.906Z,14.25
2022-08-15T02:17:07.129Z,14.13
2022-08-15T02:19:44.941Z,14.37
2022-08-15T02:22:25.790Z,12.88
2022-08-15T02:24:59.049Z,14.50
2022-08-15T02:27:32.454Z,14.32
2022-08-15T02:30:01.851Z,13.93
2022-08-15T02:32:30.530Z,14.43
2022-08-15T02:34:58.930Z,14.05
2022-08-15T02:37:25.733Z,12.73
2022-08-15T02:39:57.768Z,12.55
2022-08-15T02:42:28.801Z,13.18
2022-08-15T02:44:57.191Z,13.57
2022-08-15T02:47:24.935Z,13.02
2022-08-15T02:49:53.428Z,13.07
2022-08-15T02:52:21.672Z,13.95
2022-08-15T02:54:59.618Z,14.00
2022-08-15T02:57:29.114Z,14.27
2022-08-15T02:59:56.687Z,13.98
2022-08-15T03:02:30.927Z,15.05
2022-08-15T03:05:00.274Z,14.40
2022-08-15T03:07:27.696Z,13.82
2022-08-15T03:09:56.524Z,14.63
2022-08-15T03:12:32.054Z,15.13
2022-08-15T03:15:02.515Z,14.45
2022-08-15T03:17:35.007Z,15.25
2022-08-15T03:20:05.396Z,15.43
2022-08-15T03:22:47.126Z,14.70
2022-08-15T03:25:15.353Z,14.27
2022-08-15T03:27:42.419Z,14.45
2022-08-15T03:30:19.216Z,14.57
2022-08-15T03:32:53.527Z,14.30
2022-08-15T03:35:22.153Z,14.17
2022-08-15T03:38:00.135Z,13.75
2022-08-15T03:40:29.275Z,13.90
2022-08-15T03:43:17.782Z,14.07
2022-08-15T03:45:49.974Z,13.52
2022-08-15T03:48:21.118Z,13.60
2022-08-15T03:50:57.188Z,12.90
2022-08-15T03:53:25.522Z,12.35
2022-08-15T03:55:56.136Z,13.55
2022-08-15T03:58:35.569Z,13.57
2022-08-15T04:01:05.641Z,13.80
2022-08-15T04:03:33.695Z,13.63
2022-08-15T04:06:06.729Z,12.30
2022-08-15T04:09:04.280Z,13.57
2022-08-15T04:11:35.610Z,12.57
2022-08-15T04:14:32.645Z,12.63
2022-08-15T04:17:03.299Z,12.27
2022-08-15T04:19:46.368Z,12.20
2022-08-15T04:22:28.122Z,11.45
2022-08-15T04:25:12.638Z,11.13
2022-08-15T04:27:52.040Z,9.13
2022-08-15T04:30:21.480Z,9.43
2022-08-15T04:32:59.228Z,9.52
2022-08-15T04:35:30.098Z,10.63
2022-08-15T04:37:59.040Z,9.55
2022-08-15T04:41:17.453Z,10.37
2022-08-15T04:43:13.936Z,10.00
2022-08-15T04:45:41.483Z,9.88
2022-08-15T04:48:19.724Z,9.27
2022-08-15T04:50:49.477Z,9.20
2022-08-15T04:53:16.816Z,9.90
2022-08-15T04:55:50.153Z,10.05
2022-08-15T04:58:42.950Z,10.30
2022-08-15T05:01:12.611Z,11.27
2022-08-15T05:03:40.949Z,11.07
2022-08-15T05:06:29.107Z,11.40
2022-08-15T05:08:56.087Z,11.32
2022-08-15T05:11:22.935Z,10.93
2022-08-15T05:13:49.874Z,10.20
2022-08-15T05:16:16.774Z,10.50
2022-08-15T05:18:46.513Z,11.07
2022-08-15T05:21:13.825Z,10.40
2022-08-15T05:23:43.025Z,10.23
2022-08-15T05:26:53.095Z,9.90
2022-08-15T05:28:58.534Z,9.85
2022-08-15T05:31:32.511Z,10.23
2022-08-15T05:34:01.361Z,10.07
2022-08-15T05:36:29.753Z,10.05
2022-08-15T05:39:03.677Z,10.20
2022-08-15T05:42:12.353Z,9.20
2022-08-15T05:44:46.097Z,9.87
2022-08-15T05:47:33.053Z,9.85
2022-08-15T05:50:38.488Z,9.52
2022-08-15T05:53:33.001Z,9.48
2022-08-15T05:56:04.962Z,10.02
2022-08-15T05:58:46.749Z,8.83
2022-08-15T06:01:30.352Z,9.80
2022-08-15T06:04:08.266Z,8.80
2022-08-15T06:06:51.415Z,9.65
2022-08-15T06:09:22.366Z,10.20
2022-08-15T06:11:51.892Z,9.30
2022-08-15T06:14:35.506Z,9.23
2022-08-15T06:17:33.274Z,10.10
2022-08-15T06:20:03.936Z,9.30
2022-08-15T06:23:15.932Z,9.60
2022-08-15T06:25:53.801Z,10.47
2022-08-15T06:28:53.766Z,9.85
2022-08-15T06:31:39.992Z,9.23
2022-08-15T06:34:46.933Z,9.95
2022-08-15T06:37:28.215Z,9.77
2022-08-15T06:40:27.356Z,9.80
2022-08-15T06:42:55.576Z,9.30
2022-08-15T06:45:31.918Z,9.77
2022-08-15T06:48:54.721Z,9.75
2022-08-15T06:51:02.373Z,9.50
2022-08-15T06:53:39.731Z,10.20
2022-08-15T06:56:29.128Z,9.60
2022-08-15T06:59:15.087Z,9.60
2022-08-15T07:02:16.558Z,10.00
2022-08-15T07:05:11.518Z,9.95
2022-08-15T07:07:56.376Z,10.07
2022-08-15T07:10:29.583Z,9.70
2022-08-15T07:13:02.834Z,9.27
2022-08-15T07:15:41.626Z,9.63
2022-08-15T07:18:16.723Z,9.65
2022-08-15T07:20:43.603Z,9.47
2022-08-15T07:23:24.799Z,10.23
2022-08-15T07:25:52.779Z,9.48
2022-08-15T07:28:29.584Z,10.07
2022-08-15T07:31:07.221Z,9.40
2022-08-15T07:33:43.422Z,8.93
2022-08-15T07:36:14.038Z,9.80
2022-08-15T07:38:57.203Z,9.00
2022-08-15T07:41:25.511Z,9.20
2022-08-15T07:44:21.524Z,10.20
2022-08-15T07:47:12.798Z,9.20
2022-08-15T07:49:41.623Z,9.85
2022-08-15T07:56:38.949Z,8.80
2022-08-15T07:58:24.537Z,9.88
2022-08-15T08:01:32.908Z,10.03
2022-08-15T08:04:06.843Z,9.63
2022-08-15T08:06:51.038Z,9.10
2022-08-15T08:09:33.892Z,9.00
2022-08-15T08:12:30.692Z,9.57
2022-08-15T08:15:37.382Z,8.53
2022-08-15T08:18:13.378Z,8.73
2022-08-15T08:21:03.410Z,9.45
2022-08-15T08:23:39.712Z,8.68
2022-08-15T08:26:50.823Z,9.35
2022-08-15T08:29:34.051Z,8.77
2022-08-15T08:32:44.570Z,8.63
2022-08-15T08:35:49.182Z,9.57
2022-08-15T08:39:04.478Z,9.48
2022-08-15T08:41:45.323Z,8.52
2022-08-15T08:44:42.123Z,8.47
2022-08-15T08:47:31.138Z,8.18
2022-08-15T08:50:37.477Z,8.88
2022-08-15T08:53:15.245Z,9.00
2022-08-15T08:56:33.232Z,10.25
2022-08-15T08:59:10.502Z,9.70
2022-08-15T09:01:38.670Z,9.10
2022-08-15T09:04:13.153Z,8.52
2022-08-15T09:06:44.469Z,8.02
2022-08-15T09:09:34.188Z,8.75
2022-08-15T09:12:42.238Z,8.60
2022-08-15T09:15:17.088Z,8.50
2022-08-15T09:17:58.078Z,8.77
2022-08-15T09:20:34.724Z,9.45
2022-08-15T09:23:05.270Z,9.02
2022-08-15T09:25:32.736Z,9.33
2022-08-15T09:28:29.460Z,9.85
2022-08-15T09:31:23.449Z,8.50
2022-08-15T09:33:57.234Z,8.68
2022-08-15T09:36:38.856Z,8.88
2022-08-15T09:39:16.152Z,9.53
2022-08-15T09:42:03.143Z,8.65
2022-08-15T09:45:45.306Z,9.40
2022-08-15T09:48:21.798Z,8.80
2022-08-15T09:51:09.076Z,9.00
2022-08-15T09:54:01.740Z,8.73
2022-08-15T09:56:31.866Z,8.52
2022-08-15T09:59:18.438Z,8.55
2022-08-15T10:01:56.090Z,8.93
2022-08-15T10:04:41.597Z,9.57
2022-08-15T10:07:13.129Z,9.50
2022-08-15T10:10:00.191Z,9.50
2022-08-15T10:12:27.511Z,7.90
2022-08-15T10:14:54.445Z,8.75
2022-08-15T10:17:27.464Z,8.48
2022-08-15T10:20:00.898Z,9.10
2022-08-15T10:22:45.919Z,8.93
2022-08-15T10:25:17.049Z,8.48
2022-08-15T10:28:37.486Z,8.85
2022-08-15T10:31:09.415Z,9.13
2022-08-15T10:33:41.405Z,8.20
2022-08-15T10:36:20.666Z,8.77
2022-08-15T10:39:18.992Z,8.82
2022-08-15T10:41:53.265Z,8.65
2022-08-15T10:44:43.805Z,9.52
2022-08-15T10:47:28.494Z,10.13
2022-08-15T10:50:04.216Z,9.38
2022-08-15T10:52:36.902Z,9.55
2022-08-15T10:55:56.123Z,9.27
2022-08-15T10:58:30.693Z,9.52
2022-08-15T11:01:08.924Z,9.17
2022-08-15T11:04:48.968Z,9.90
2022-08-15T11:06:41.322Z,9.15
2022-08-15T11:09:16.504Z,9.15
2022-08-15T11:11:56.764Z,9.20
2022-08-15T11:14:30.375Z,10.00
2022-08-15T11:16:59.318Z,9.48
2022-08-15T11:20:10.460Z,9.15
2022-08-15T11:22:59.724Z,9.80
2022-08-15T11:25:30.552Z,10.15
2022-08-15T11:28:29.282Z,10.17
2022-08-15T11:31:12.815Z,9.30
2022-08-15T11:33:43.304Z,10.65
2022-08-15T11:36:31.036Z,10.30
2022-08-15T11:39:14.841Z,10.43
2022-08-15T11:41:50.089Z,10.70
2022-08-15T11:44:23.360Z,11.88
2022-08-15T11:46:50.598Z,9.80
2022-08-15T11:49:34.312Z,9.80
2022-08-15T11:52:40.489Z,11.68
2022-08-15T11:55:13.451Z,11.07
2022-08-15T11:57:45.658Z,10.27
2022-08-15T12:00:38.096Z,10.70
2022-08-15T12:06:33.587Z,11.48
2022-08-15T12:09:14.174Z,9.77
2022-08-15T12:11:52.478Z,10.15
2022-08-15T12:13:11.854Z,10.13
2022-08-15T12:14:25.104Z,10.50
2022-08-15T12:17:00.699Z,10.50
2022-08-15T12:20:27.071Z,10.77
2022-08-15T12:22:53.117Z,11.27
2022-08-15T12:25:37.854Z,11.07
2022-08-15T12:28:34.377Z,10.38
2022-08-15T12:31:26.017Z,10.95
2022-08-15T12:34:28.424Z,10.48
2022-08-15T12:37:07.394Z,11.67
2022-08-15T12:39:47.299Z,10.55
2022-08-15T12:42:48.643Z,9.23
2022-08-15T12:45:13.432Z,9.63
2022-08-15T12:47:40.905Z,9.75
2022-08-15T12:50:27.717Z,9.77
2022-08-15T12:52:57.683Z,11.60
2022-08-15T12:55:25.029Z,10.07
2022-08-15T12:58:02.166Z,10.82
2022-08-15T13:00:35.756Z,10.38
2022-08-15T13:03:27.875Z,10.40
2022-08-15T13:06:34.566Z,9.60
2022-08-15T13:09:05.978Z,9.65
2022-08-15T13:11:34.991Z,9.57
2022-08-15T13:14:01.777Z,9.15
2022-08-15T13:17:06.036Z,9.67
2022-08-15T13:19:24.349Z,9.35
2022-08-15T13:22:32.979Z,9.38
2022-08-15T13:25:01.394Z,9.00
2022-08-15T13:27:29.276Z,8.70
2022-08-15T13:29:57.013Z,8.77
2022-08-15T13:32:25.206Z,8.52
2022-08-15T13:34:52.892Z,9.02
2022-08-15T13:37:59.838Z,8.65
2022-08-15T13:40:19.598Z,8.68
2022-08-15T13:42:48.263Z,8.83
2022-08-15T13:45:57.035Z,8.02
2022-08-15T13:48:16.363Z,8.38
2022-08-15T13:50:45.240Z,8.00
2022-08-15T13:53:13.018Z,8.45
2022-08-15T13:55:42.674Z,7.40
2022-08-15T13:58:20.080Z,7.40
2022-08-15T14:00:56.638Z,7.70
2022-08-15T14:03:32.753Z,8.10
2022-08-15T14:06:04.166Z,7.78
2022-08-15T14:09:01.032Z,7.63
2022-08-15T14:11:30.542Z,7.30
2022-08-15T14:14:00.325Z,7.95
2022-08-15T14:16:58.955Z,7.53
2022-08-15T14:19:39.284Z,7.82
2022-08-15T14:22:05.700Z,8.07
2022-08-15T14:24:53.849Z,7.05
2022-08-15T14:27:41.550Z,7.82
2022-08-15T14:30:09.986Z,8.00
2022-08-15T14:32:51.098Z,8.80
2022-08-15T14:35:20.140Z,8.60
2022-08-15T14:37:53.038Z,8.90
2022-08-15T14:40:24.844Z,9.13
2022-08-15T14:42:58.381Z,8.95
2022-08-15T14:46:31.136Z,9.00
2022-08-15T14:48:23.562Z,9.13
2022-08-15T14:52:00.717Z,9.52
2022-08-15T14:53:49.100Z,10.23
2022-08-15T14:56:16.281Z,12.52
2022-08-15T14:58:50.231Z,11.15
2022-08-15T15:01:29.280Z,10.03
2022-08-15T15:03:58.649Z,9.57
2022-08-15T15:06:29.927Z,8.90
2022-08-15T15:08:57.607Z,9.20
2022-08-15T15:11:28.492Z,9.23
2022-08-15T15:13:55.521Z,9.20
2022-08-15T15:16:42.162Z,9.13
2022-08-15T15:19:16.796Z,8.60
2022-08-15T15:21:44.043Z,8.50
2022-08-15T15:24:13.637Z,9.48
2022-08-15T15:26:54.756Z,9.57
2022-08-15T15:29:24.203Z,9.05
2022-08-15T15:31:55.587Z,9.00
2022-08-15T15:34:30.576Z,8.43
2022-08-15T15:37:04.270Z,8.85
2022-08-15T15:39:47.056Z,8.83
2022-08-15T15:42:17.396Z,8.50
2022-08-15T15:44:46.102Z,8.35
2022-08-15T15:47:13.137Z,8.32
2022-08-15T15:49:52.658Z,7.85
2022-08-15T15:52:22.036Z,8.77
2022-08-15T15:54:53.932Z,8.18
2022-08-15T15:57:25.343Z,8.38
2022-08-15T15:59:59.888Z,8.20
2022-08-15T16:02:49.779Z,10.73
2022-08-15T16:06:02.381Z,8.37
2022-08-15T16:08:32.671Z,7.78
2022-08-15T16:11:25.179Z,8.75
2022-08-15T16:13:55.958Z,9.75
2022-08-15T16:16:29.699Z,9.18
2022-08-15T16:19:01.921Z,9.83
2022-08-15T16:22:00.219Z,10.68
2022-08-15T16:24:50.781Z,9.98
2022-08-15T16:27:25.501Z,11.30
2022-08-15T16:30:08.910Z,11.38
2022-08-15T16:32:47.999Z,11.00
2022-08-15T16:35:21.013Z,12.18
2022-08-15T16:37:49.465Z,11.98
2022-08-15T16:40:25.598Z,11.65
2022-08-15T16:43:17.177Z,11.40
2022-08-15T16:46:06.001Z,11.30
2022-08-15T16:48:38.237Z,12.15
2022-08-15T16:51:52.944Z,11.93
2022-08-15T16:54:39.203Z,9.85
2022-08-15T16:57:13.998Z,11.10
2022-08-15T16:59:52.594Z,8.23
2022-08-15T17:03:08.206Z,5.60
2022-08-15T17:05:26.416Z,3.80
2022-08-15T17:08:24.420Z,4.30
2022-08-15T17:11:14.418Z,4.05
2022-08-15T17:14:03.150Z,4.30
2022-08-15T17:16:47.391Z,5.55
2022-08-15T17:19:22.236Z,6.28
2022-08-15T17:21:54.946Z,7.68
2022-08-15T17:24:56.032Z,8.10
2022-08-15T17:28:34.913Z,8.57
2022-08-15T17:30:57.547Z,9.38
2022-08-15T17:33:43.450Z,9.20
2022-08-15T17:36:15.854Z,9.38
2022-08-15T17:39:03.258Z,9.63
2022-08-15T17:41:32.053Z,9.33
2022-08-15T17:44:15.506Z,9.55
2022-08-15T17:46:45.133Z,9.88
2022-08-15T17:49:17.953Z,9.95
2022-08-15T17:51:54.956Z,8.73
2022-08-15T17:54:24.702Z,8.60
2022-08-15T17:57:09.345Z,8.45
2022-08-15T17:59:39.017Z,7.40
2022-08-15T18:02:30.520Z,6.57
2022-08-15T18:05:01.268Z,6.53
2022-08-15T18:07:33.554Z,6.73
2022-08-15T18:10:45.289Z,6.20
2022-08-15T18:13:13.951Z,6.20
2022-08-15T18:16:20.385Z,6.75
2022-08-15T18:18:58.318Z,6.20
2022-08-15T18:21:30.279Z,6.30
2022-08-15T18:23:57.843Z,6.55
2022-08-15T18:26:50.671Z,6.95
2022-08-15T18:29:19.807Z,6.63
2022-08-15T18:32:04.121Z,6.85
2022-08-15T18:34:53.673Z,6.93
2022-08-15T18:37:41.698Z,6.85
2022-08-15T18:40:42.741Z,6.90
2022-08-15T18:43:11.518Z,7.03
2022-08-15T18:45:43.635Z,6.40
2022-08-15T18:48:35.890Z,7.20
2022-08-15T18:51:09.988Z,6.72
2022-08-15T18:53:56.345Z,6.72
2022-08-15T18:56:30.863Z,7.10
2022-08-15T18:58:59.550Z,7.10
2022-08-15T19:01:36.792Z,7.07
2022-08-15T19:04:49.401Z,7.50
2022-08-15T19:07:13.162Z,7.55
2022-08-15T19:09:42.477Z,7.72
2022-08-15T19:12:25.793Z,7.55
2022-08-15T19:15:08.517Z,7.23
2022-08-15T19:17:40.045Z,7.72
2022-08-15T19:20:26.210Z,8.23
2022-08-15T19:22:56.164Z,8.45
2022-08-15T19:25:40.558Z,8.32
2022-08-15T19:28:44.646Z,8.70
2022-08-15T19:31:52.307Z,8.65
2022-08-15T19:34:55.863Z,8.40
2022-08-15T19:37:53.456Z,8.35
2022-08-15T19:40:52.270Z,8.48
2022-08-15T19:43:33.834Z,8.33
2022-08-15T19:46:35.647Z,8.77
2022-08-15T19:50:05.826Z,9.40
2022-08-15T19:52:45.473Z,8.52
2022-08-15T19:55:55.648Z,8.50
2022-08-15T19:58:36.678Z,8.37
2022-08-15T20:01:37.383Z,8.77
2022-08-15T20:04:57.372Z,9.30
2022-08-15T20:07:44.697Z,9.50
2022-08-15T20:10:17.934Z,9.52
2022-08-15T20:12:51.039Z,8.60
2022-08-15T20:15:41.997Z,9.30
2022-08-15T20:18:28.871Z,8.63
2022-08-15T20:21:11.113Z,8.95
2022-08-15T20:23:42.736Z,8.80
2022-08-15T20:26:28.526Z,8.73
2022-08-15T20:29:14.717Z,9.05
2022-08-15T20:32:02.195Z,10.80
2022-08-15T20:35:13.420Z,11.02
2022-08-15T20:37:40.639Z,12.20
2022-08-15T20:40:23.612Z,10.80
2022-08-15T20:43:18.834Z,10.98
2022-08-15T20:45:47.462Z,10.52
2022-08-15T20:48:44.326Z,10.35
2022-08-15T20:52:00.850Z,9.85
2022-08-15T20:54:34.739Z,11.27
2022-08-15T20:57:07.117Z,10.40
2022-08-15T20:59:43.603Z,12.65
2022-08-15T21:02:42.820Z,15.18
2022-08-15T21:05:10.217Z,18.70
2022-08-15T21:07:56.357Z,17.63
2022-08-15T21:10:50.046Z,18.77
2022-08-15T21:13:25.215Z,19.92
2022-08-15T21:16:41.018Z,20.42
2022-08-15T21:19:29.566Z,21.95
2022-08-15T21:21:57.576Z,18.50
2022-08-15T21:24:26.819Z,19.33
2022-08-15T21:26:55.001Z,19.70
2022-08-15T21:29:25.050Z,16.92
2022-08-15T21:31:58.393Z,18.83
2022-08-15T21:34:32.464Z,16.60
2022-08-15T21:37:11.249Z,16.80
2022-08-15T21:39:57.005Z,16.45
2022-08-15T21:42:24.097Z,16.65
2022-08-15T21:45:10.448Z,15.50
2022-08-15T21:47:48.127Z,15.47
2022-08-15T21:50:27.145Z,15.55
2022-08-15T21:53:00.544Z,15.30
2022-08-15T21:55:36.225Z,15.18
2022-08-15T21:58:28.496Z,15.05
2022-08-15T22:01:11.788Z,16.10
2022-08-15T22:03:48.294Z,16.25
2022-08-15T22:06:25.508Z,15.68
2022-08-15T22:08:55.622Z,16.15
2022-08-15T22:11:26.544Z,15.93
2022-08-15T22:13:56.619Z,14.73
2022-08-15T22:16:37.802Z,16.15
2022-08-15T22:19:07.167Z,14.70
2022-08-15T22:21:38.917Z,14.15
2022-08-15T22:24:07.298Z,13.65
2022-08-15T22:26:38.350Z,13.60
2022-08-15T22:29:48.926Z,12.23
2022-08-15T22:32:31.925Z,11.90
2022-08-15T22:35:01.133Z,13.07
2022-08-15T22:37:34.286Z,12.43
2022-08-15T22:40:11.639Z,12.90
2022-08-15T22:42:52.474Z,12.93
2022-08-15T22:45:23.438Z,12.80
2022-08-15T22:48:18.919Z,12.18
2022-08-15T22:50:51.817Z,12.90
2022-08-15T22:53:18.996Z,12.30
2022-08-15T22:55:45.925Z,12.80
2022-08-15T22:58:13.508Z,11.57
2022-08-15T23:00:47.462Z,11.82
2022-08-15T23:03:14.897Z,11.60
2022-08-15T23:05:46.014Z,12.40
2022-08-15T23:08:27.742Z,12.18
2022-08-15T23:10:59.125Z,14.27
2022-08-15T23:13:59.993Z,13.77
2022-08-15T23:16:37.175Z,12.65
2022-08-15T23:19:30.033Z,13.53
2022-08-15T23:21:58.379Z,13.00
2022-08-15T23:24:37.506Z,12.52
2022-08-15T23:27:05.378Z,12.48
2022-08-15T23:29:36.729Z,11.80
2022-08-15T23:32:29.346Z,12.57
2022-08-15T23:35:03.800Z,12.50
2022-08-15T23:37:37.101Z,12.52
2022-08-15T23:40:13.238Z,13.80
2022-08-15T23:42:54.818Z,14.65
2022-08-15T23:45:42.773Z,14.30
2022-08-15T23:48:12.444Z,15.48
2022-08-15T23:50:42.530Z,14.85
2022-08-15T23:53:19.464Z,14.38
2022-08-15T23:55:58.881Z,14.38
2022-08-15T23:58:36.536Z,15.00
